createdAt,value
2023-04-20T00:00:22.261Z,82.80
2023-04-20T00:03:28.978Z,82.56
2023-04-20T00:06:38.590Z,83.14
2023-04-20T00:09:44.440Z,83.10
2023-04-20T00:12:51.293Z,82.71
2023-04-20T00:15:57.281Z,82.81
2023-04-20T00:19:04.201Z,83.08
2023-04-20T00:22:12.694Z,82.92
2023-04-20T00:25:19.788Z,83.05
2023-04-20T00:28:25.778Z,83.49
2023-04-20T00:31:32.582Z,83.64
2023-04-20T00:34:38.584Z,83.36
2023-04-20T00:37:52.761Z,83.21
2023-04-20T00:40:59.059Z,83.08
2023-04-20T00:44:07.023Z,83.46
2023-04-20T00:47:13.129Z,83.21
2023-04-20T00:50:20.803Z,82.68
2023-04-20T00:53:29.404Z,83.40
2023-04-20T00:56:36.367Z,83.21
2023-04-20T00:59:56.475Z,82.61
2023-04-20T01:03:03.497Z,82.90
2023-04-20T01:06:11.316Z,82.95
2023-04-20T01:09:20.717Z,83.36
2023-04-20T01:12:26.675Z,83.58
2023-04-20T01:15:34.497Z,84.26
2023-04-20T01:18:48.702Z,84.27
2023-04-20T01:21:55.852Z,84.45
2023-04-20T01:25:16.820Z,84.65
2023-04-20T01:28:27.762Z,85.27
2023-04-20T01:31:34.126Z,84.85
2023-04-20T01:34:42.093Z,84.89
2023-04-20T01:37:50.161Z,84.40
2023-04-20T01:40:59.835Z,84.60
2023-04-20T01:44:06.823Z,84.21
2023-04-20T01:47:14.500Z,83.95
2023-04-20T01:50:20.711Z,84.05
2023-04-20T01:53:28.230Z,84.50
2023-04-20T01:56:36.711Z,84.15
2023-04-20T01:59:43.657Z,84.63
2023-04-20T02:02:51.648Z,84.96
2023-04-20T02:05:58.597Z,84.61
2023-04-20T02:09:09.511Z,83.98
2023-04-20T02:12:19.015Z,83.91
2023-04-20T02:15:27.027Z,83.96
2023-04-20T02:18:39.871Z,83.50
2023-04-20T02:21:45.902Z,83.29
2023-04-20T02:24:52.910Z,82.99
2023-04-20T02:28:01.432Z,83.38
2023-04-20T02:31:08.577Z,82.81
2023-04-20T02:34:14.584Z,83.02
2023-04-20T02:37:21.420Z,83.33
2023-04-20T02:40:27.566Z,83.27
2023-04-20T02:43:37.251Z,83.61
2023-04-20T02:46:50.090Z,84.07
2023-04-20T02:49:58.380Z,84.42
2023-04-20T02:53:08.834Z,84.70
2023-04-20T02:56:17.339Z,83.33
2023-04-20T02:59:33.030Z,82.82
2023-04-20T03:02:45.777Z,82.72
2023-04-20T03:05:53.078Z,82.39
2023-04-20T03:09:02.070Z,82.03
2023-04-20T03:12:26.917Z,81.80
2023-04-20T03:15:59.103Z,82.15
2023-04-20T03:19:13.955Z,82.20
2023-04-20T03:22:21.037Z,82.75
2023-04-20T03:25:32.876Z,82.46
2023-04-20T03:28:46.267Z,82.62
2023-04-20T03:32:00.639Z,82.52
2023-04-20T03:35:15.363Z,82.95
2023-04-20T03:38:21.519Z,83.04
2023-04-20T03:41:28.448Z,82.83
2023-04-20T03:44:34.316Z,82.47
2023-04-20T03:47:46.524Z,82.66
2023-04-20T03:50:52.651Z,82.26
2023-04-20T03:53:59.384Z,82.56
2023-04-20T03:57:06.387Z,82.64
2023-04-20T04:00:15.540Z,82.50
2023-04-20T04:03:27.297Z,82.51
2023-04-20T04:06:34.512Z,82.32
2023-04-20T04:09:40.385Z,82.06
2023-04-20T04:12:48.391Z,80.96
2023-04-20T04:15:54.698Z,81.51
2023-04-20T04:19:04.735Z,80.95
2023-04-20T04:22:11.855Z,81.18
2023-04-20T04:25:30.100Z,80.61
2023-04-20T04:28:36.278Z,80.55
2023-04-20T04:31:51.417Z,80.17
2023-04-20T04:35:01.655Z,79.82
2023-04-20T04:38:08.615Z,79.97
2023-04-20T04:41:16.388Z,79.84
2023-04-20T04:44:26.334Z,79.94
2023-04-20T04:47:32.798Z,79.77
2023-04-20T04:50:42.431Z,79.51
2023-04-20T04:53:49.930Z,79.19
2023-04-20T04:56:56.739Z,79.18
2023-04-20T05:00:02.739Z,78.87
2023-04-20T05:03:09.876Z,79.55
2023-04-20T05:06:18.777Z,78.32
2023-04-20T05:09:25.914Z,78.30
2023-04-20T05:12:31.819Z,78.27
2023-04-20T05:15:39.008Z,77.22
2023-04-20T05:18:45.142Z,77.15
2023-04-20T05:21:54.808Z,75.52
2023-04-20T05:25:00.828Z,74.66
2023-04-20T05:28:08.039Z,74.52
2023-04-20T05:31:14.090Z,73.58
2023-04-20T05:34:20.946Z,72.73
2023-04-20T05:37:29.746Z,71.60
2023-04-20T05:40:37.656Z,69.45
2023-04-20T05:43:43.618Z,66.49
2023-04-20T05:46:50.764Z,64.41
2023-04-20T05:49:56.635Z,63.59
2023-04-20T05:53:06.193Z,64.08
2023-04-20T05:56:12.282Z,64.59
2023-04-20T05:59:19.990Z,65.11
2023-04-20T06:02:26.633Z,66.12
2023-04-20T06:05:34.279Z,66.41
2023-04-20T06:08:43.042Z,67.86
2023-04-20T06:11:49.820Z,66.33
2023-04-20T06:14:56.079Z,67.28
2023-04-20T06:18:02.954Z,67.78
2023-04-20T06:21:09.180Z,67.33
2023-04-20T06:24:18.571Z,68.21
2023-04-20T06:27:24.591Z,67.33
2023-04-20T06:30:31.322Z,67.06
2023-04-20T06:33:37.392Z,66.65
2023-04-20T06:36:46.566Z,65.97
2023-04-20T06:39:57.621Z,66.26
2023-04-20T06:43:04.510Z,66.60
2023-04-20T06:46:10.508Z,66.90
2023-04-20T06:49:17.637Z,66.41
2023-04-20T06:52:24.336Z,66.58
2023-04-20T06:55:34.102Z,66.37
2023-04-20T06:58:40.222Z,65.35
2023-04-20T07:01:49.898Z,66.21
2023-04-20T07:04:56.018Z,66.67
2023-04-20T07:08:02.950Z,66.24
2023-04-20T07:11:11.751Z,65.32
2023-04-20T07:14:18.536Z,64.97
2023-04-20T07:17:24.894Z,64.75
2023-04-20T07:20:31.833Z,62.41
2023-04-20T07:23:37.877Z,59.01
2023-04-20T07:26:47.427Z,56.27
2023-04-20T07:29:53.274Z,54.24
2023-04-20T07:33:08.959Z,54.03
2023-04-20T07:36:17.264Z,51.48
2023-04-20T07:39:25.780Z,51.63
2023-04-20T07:42:39.767Z,52.86
2023-04-20T07:45:46.700Z,50.28
2023-04-20T07:48:53.004Z,51.22
2023-04-20T07:52:12.981Z,51.39
2023-04-20T07:55:22.900Z,51.40
2023-04-20T07:58:32.270Z,51.21
2023-04-20T08:01:43.568Z,53.04
2023-04-20T08:04:57.329Z,53.91
2023-04-20T08:08:10.528Z,51.83
2023-04-20T08:11:17.354Z,50.54
2023-04-20T08:14:26.740Z,47.63
2023-04-20T08:17:39.984Z,46.30
2023-04-20T08:21:00.096Z,46.53
2023-04-20T08:24:19.108Z,45.89
2023-04-20T08:27:25.134Z,45.91
2023-04-20T08:30:34.811Z,48.31
2023-04-20T08:33:45.057Z,47.40
2023-04-20T08:36:52.229Z,46.64
2023-04-20T08:39:58.145Z,47.75
2023-04-20T08:43:05.007Z,47.92
2023-04-20T08:46:14.013Z,47.85
2023-04-20T08:49:22.601Z,47.52
2023-04-20T08:52:38.988Z,46.94
2023-04-20T08:55:46.121Z,45.98
2023-04-20T08:58:52.679Z,45.42
2023-04-20T09:02:13.987Z,46.64
2023-04-20T09:05:28.290Z,45.14
2023-04-20T09:08:42.916Z,42.21
2023-04-20T09:11:49.786Z,41.91
2023-04-20T09:14:57.345Z,41.26
2023-04-20T09:18:17.870Z,43.10
2023-04-20T09:21:25.192Z,42.01
2023-04-20T09:24:44.310Z,42.70
2023-04-20T09:28:00.272Z,41.02
2023-04-20T09:31:06.359Z,40.99
2023-04-20T09:34:16.852Z,41.04
2023-04-20T09:37:23.218Z,40.24
2023-04-20T09:40:30.360Z,40.83
2023-04-20T09:43:39.375Z,41.11
2023-04-20T09:46:48.341Z,40.53
2023-04-20T09:50:00.148Z,39.67
2023-04-20T09:53:09.550Z,42.74
2023-04-20T09:56:18.562Z,41.19
2023-04-20T09:59:25.510Z,40.40
2023-04-20T10:02:31.820Z,42.84
2023-04-20T10:05:43.158Z,43.50
2023-04-20T10:08:49.403Z,44.09
2023-04-20T10:11:59.593Z,45.21
2023-04-20T10:15:06.054Z,46.54
2023-04-20T10:18:21.205Z,46.68
2023-04-20T10:21:36.997Z,47.13
2023-04-20T10:24:55.549Z,45.86
2023-04-20T10:28:06.426Z,45.49
2023-04-20T10:31:15.802Z,44.34
2023-04-20T10:34:33.123Z,45.69
2023-04-20T10:37:52.305Z,47.39
2023-04-20T10:40:58.431Z,47.00
2023-04-20T10:44:13.366Z,48.57
2023-04-20T10:47:19.574Z,50.35
2023-04-20T10:50:35.618Z,50.54
2023-04-20T10:53:52.732Z,51.88
2023-04-20T10:56:59.522Z,52.31
2023-04-20T11:00:19.587Z,52.00
2023-04-20T11:03:26.636Z,52.74
2023-04-20T11:06:32.911Z,52.12
2023-04-20T11:09:43.315Z,52.05
2023-04-20T11:12:49.233Z,52.25
2023-04-20T11:15:56.149Z,51.29
2023-04-20T11:19:02.107Z,49.80
2023-04-20T11:22:10.086Z,49.25
2023-04-20T11:25:20.408Z,47.99
2023-04-20T11:28:34.821Z,47.61
2023-04-20T11:31:47.123Z,48.04
2023-04-20T11:35:07.194Z,49.35
2023-04-20T11:38:13.653Z,48.14
2023-04-20T11:41:23.530Z,48.66
2023-04-20T11:44:30.212Z,48.78
2023-04-20T11:47:38.181Z,48.86
2023-04-20T11:50:44.273Z,50.61
2023-04-20T11:53:50.981Z,50.75
2023-04-20T11:57:00.410Z,51.13
2023-04-20T12:00:13.454Z,50.61
2023-04-20T12:03:26.142Z,49.61
2023-04-20T12:06:36.505Z,48.69
2023-04-20T12:09:42.496Z,47.86
2023-04-20T12:12:52.468Z,47.00
2023-04-20T12:15:58.463Z,45.28
2023-04-20T12:19:09.323Z,45.02
2023-04-20T12:22:17.809Z,45.17
2023-04-20T12:25:30.835Z,44.23
2023-04-20T12:28:39.881Z,45.75
2023-04-20T12:31:46.829Z,45.35
2023-04-20T12:34:52.943Z,48.17
2023-04-20T12:38:01.603Z,48.20
2023-04-20T12:41:17.814Z,47.87
2023-04-20T12:44:27.440Z,48.86
2023-04-20T12:47:33.574Z,49.05
2023-04-20T12:50:40.440Z,49.32
2023-04-20T12:53:46.712Z,50.40
2023-04-20T12:56:56.421Z,51.14
2023-04-20T13:00:14.451Z,52.58
2023-04-20T13:03:21.670Z,53.28
2023-04-20T13:06:28.276Z,52.66
2023-04-20T13:09:35.000Z,53.42
2023-04-20T13:12:41.078Z,53.33
2023-04-20T13:15:50.482Z,52.48
2023-04-20T13:18:56.736Z,52.56
2023-04-20T13:22:04.151Z,52.79
2023-04-20T13:25:11.482Z,52.66
2023-04-20T13:28:18.452Z,51.35
2023-04-20T13:31:27.072Z,51.08
2023-04-20T13:34:34.016Z,51.21
2023-04-20T13:37:40.020Z,50.91
2023-04-20T13:40:47.024Z,49.64
2023-04-20T13:43:53.546Z,49.15
2023-04-20T13:47:07.899Z,48.82
2023-04-20T13:50:14.642Z,47.48
2023-04-20T13:53:22.247Z,47.21
2023-04-20T13:56:28.281Z,47.18
2023-04-20T13:59:35.226Z,46.56
2023-04-20T14:02:43.925Z,46.02
2023-04-20T14:05:51.892Z,45.24
2023-04-20T14:08:58.243Z,45.16
2023-04-20T14:12:05.185Z,46.80
2023-04-20T14:15:13.687Z,46.33
2023-04-20T14:18:26.624Z,48.86
2023-04-20T14:21:33.045Z,49.17
2023-04-20T14:24:41.039Z,49.55
2023-04-20T14:27:46.939Z,50.11
2023-04-20T14:30:54.250Z,49.85
2023-04-20T14:34:13.457Z,49.42
2023-04-20T14:37:20.498Z,49.05
2023-04-20T14:40:34.496Z,48.00
2023-04-20T14:43:41.539Z,47.20
2023-04-20T14:46:47.654Z,46.70
2023-04-20T14:50:01.504Z,45.49
2023-04-20T14:53:07.647Z,44.51
2023-04-20T14:56:14.510Z,44.85
2023-04-20T14:59:20.623Z,45.37
2023-04-20T15:02:27.547Z,44.90
2023-04-20T15:05:37.458Z,45.81
2023-04-20T15:09:04.976Z,45.45
2023-04-20T15:12:16.556Z,45.56
2023-04-20T15:15:23.392Z,46.12
2023-04-20T15:18:29.437Z,46.09
2023-04-20T15:21:43.484Z,46.70
2023-04-20T15:24:50.627Z,46.67
2023-04-20T15:28:11.644Z,45.97
2023-04-20T15:31:20.629Z,44.33
2023-04-20T15:34:27.402Z,44.27
2023-04-20T15:37:36.184Z,43.27
2023-04-20T15:40:43.051Z,43.49
2023-04-20T15:43:49.199Z,44.40
2023-04-20T15:46:56.465Z,42.82
2023-04-20T15:50:04.519Z,43.51
2023-04-20T15:53:14.094Z,41.88
2023-04-20T15:56:29.157Z,42.86
2023-04-20T15:59:38.337Z,42.67
2023-04-20T16:02:55.124Z,42.93
2023-04-20T16:06:03.581Z,42.86
2023-04-20T16:09:12.125Z,42.33
2023-04-20T16:12:27.139Z,42.74
2023-04-20T16:15:34.064Z,42.65
2023-04-20T16:18:41.194Z,42.65
2023-04-20T16:21:47.216Z,42.89
2023-04-20T16:24:57.049Z,43.10
2023-04-20T16:28:03.705Z,43.27
2023-04-20T16:31:10.761Z,43.38
2023-04-20T16:34:17.550Z,43.19
2023-04-20T16:37:29.579Z,43.58
2023-04-20T16:40:38.180Z,43.65
2023-04-20T16:43:45.133Z,44.10
2023-04-20T16:46:52.986Z,44.59
2023-04-20T16:50:06.203Z,44.92
2023-04-20T16:53:18.430Z,45.05
2023-04-20T16:56:27.835Z,44.95
2023-04-20T16:59:33.936Z,44.94
2023-04-20T17:02:47.308Z,45.05
2023-04-20T17:05:55.647Z,45.19
2023-04-20T17:09:07.324Z,45.45
2023-04-20T17:12:15.948Z,45.85
2023-04-20T17:15:22.867Z,45.96
2023-04-20T17:18:29.052Z,46.51
2023-04-20T17:21:35.887Z,46.80
2023-04-20T17:24:41.851Z,47.59
2023-04-20T17:27:52.100Z,47.43
2023-04-20T17:30:59.873Z,47.94
2023-04-20T17:34:07.364Z,48.24
2023-04-20T17:37:13.306Z,48.34
2023-04-20T17:40:20.194Z,48.62
2023-04-20T17:43:40.673Z,49.00
2023-04-20T17:46:47.511Z,48.93
2023-04-20T17:49:53.878Z,49.04
2023-04-20T17:53:11.268Z,49.73
2023-04-20T17:56:17.278Z,49.79
2023-04-20T17:59:32.529Z,50.70
2023-04-20T18:02:38.768Z,50.83
2023-04-20T18:05:45.716Z,51.53
2023-04-20T18:08:51.661Z,52.44
2023-04-20T18:11:58.400Z,52.43
2023-04-20T18:15:09.183Z,52.80
2023-04-20T18:18:22.437Z,52.92
2023-04-20T18:21:29.934Z,53.23
2023-04-20T18:24:36.985Z,53.72
2023-04-20T18:27:42.921Z,53.71
2023-04-20T18:30:59.024Z,54.05
2023-04-20T18:34:17.126Z,54.45
2023-04-20T18:37:24.094Z,54.34
2023-04-20T18:40:30.064Z,54.73
2023-04-20T18:43:39.178Z,55.23
2023-04-20T18:46:48.260Z,55.37
2023-04-20T18:49:55.239Z,55.46
2023-04-20T18:53:01.120Z,55.67
2023-04-20T18:56:10.161Z,55.94
2023-04-20T18:59:16.445Z,56.06
2023-04-20T19:02:27.287Z,56.18
2023-04-20T19:05:33.401Z,56.47
2023-04-20T19:08:40.249Z,56.33
2023-04-20T19:11:46.513Z,56.60
2023-04-20T19:15:04.469Z,57.11
2023-04-20T19:18:13.179Z,56.80
2023-04-20T19:21:32.415Z,57.17
2023-04-20T19:24:38.567Z,57.32
2023-04-20T19:27:45.606Z,57.97
2023-04-20T19:30:51.877Z,58.04
2023-04-20T19:34:01.247Z,58.06
2023-04-20T19:37:09.316Z,58.71
2023-04-20T19:40:16.584Z,58.92
2023-04-20T19:43:25.057Z,58.96
2023-04-20T19:46:36.307Z,59.43
2023-04-20T19:49:44.995Z,59.55
2023-04-20T19:52:51.790Z,59.62
2023-04-20T19:55:57.931Z,60.71
2023-04-20T19:59:05.031Z,60.08
2023-04-20T20:02:11.221Z,60.49
2023-04-20T20:05:21.107Z,61.15
2023-04-20T20:08:27.127Z,61.01
2023-04-20T20:11:33.854Z,61.55
2023-04-20T20:14:40.079Z,61.58
2023-04-20T20:17:48.032Z,62.40
2023-04-20T20:20:56.627Z,62.10
2023-04-20T20:24:03.379Z,62.48
2023-04-20T20:27:09.526Z,62.91
2023-04-20T20:30:19.485Z,63.05
2023-04-20T20:33:26.372Z,63.45
2023-04-20T20:36:36.394Z,63.76
2023-04-20T20:39:43.340Z,63.70
2023-04-20T20:42:50.804Z,64.02
2023-04-20T20:45:56.750Z,63.92
2023-04-20T20:49:03.548Z,64.56
2023-04-20T20:52:12.410Z,64.85
2023-04-20T20:55:19.642Z,65.25
2023-04-20T20:58:25.693Z,65.24
2023-04-20T21:01:46.940Z,65.24
2023-04-20T21:05:10.228Z,65.38
2023-04-20T21:08:20.404Z,65.75
2023-04-20T21:11:26.764Z,66.08
2023-04-20T21:14:33.557Z,66.71
2023-04-20T21:17:39.695Z,67.01
2023-04-20T21:20:46.625Z,66.41
2023-04-20T21:23:55.894Z,66.36
2023-04-20T21:27:03.221Z,66.79
2023-04-20T21:30:10.770Z,66.67
2023-04-20T21:33:17.763Z,66.51
2023-04-20T21:36:31.217Z,66.66
2023-04-20T21:39:40.757Z,66.55
2023-04-20T21:42:49.436Z,66.96
2023-04-20T21:45:56.274Z,66.53
2023-04-20T21:49:02.860Z,67.17
2023-04-20T21:52:12.655Z,67.20
2023-04-20T21:55:21.218Z,66.72
2023-04-20T21:58:28.047Z,67.37
2023-04-20T22:01:34.197Z,67.13
2023-04-20T22:04:41.657Z,67.73
2023-04-20T22:07:48.190Z,67.66
2023-04-20T22:10:59.918Z,68.07
2023-04-20T22:14:06.273Z,68.25
2023-04-20T22:17:14.762Z,68.06
2023-04-20T22:20:21.014Z,67.96
2023-04-20T22:23:27.842Z,67.29
2023-04-20T22:26:36.517Z,67.81
2023-04-20T22:29:43.330Z,67.79
2023-04-20T22:32:49.391Z,67.29
2023-04-20T22:35:56.254Z,67.65
2023-04-20T22:39:02.325Z,67.73
2023-04-20T22:42:11.814Z,67.62
2023-04-20T22:45:20.534Z,67.51
2023-04-20T22:48:27.431Z,67.74
2023-04-20T22:51:33.440Z,67.58
2023-04-20T22:54:40.743Z,67.42
2023-04-20T22:57:49.302Z,67.63
2023-04-20T23:00:56.129Z,67.47
2023-04-20T23:04:02.235Z,67.90
2023-04-20T23:07:11.947Z,67.70
2023-04-20T23:10:19.449Z,67.64
2023-04-20T23:13:29.141Z,68.09
2023-04-20T23:16:35.360Z,68.40
2023-04-20T23:19:42.175Z,68.04
2023-04-20T23:22:48.009Z,68.08
2023-04-20T23:26:01.359Z,68.26
2023-04-20T23:29:21.359Z,68.13
2023-04-20T23:32:29.955Z,68.52
2023-04-20T23:35:38.969Z,68.48
2023-04-20T23:38:46.802Z,68.49
2023-04-20T23:41:52.700Z,68.69
2023-04-20T23:45:02.086Z,69.23
2023-04-20T23:48:17.979Z,69.08
2023-04-20T23:51:24.919Z,69.71
2023-04-20T23:54:33.101Z,70.23
2023-04-20T23:57:40.277Z,70.52
